Ghammaza El-Sughra, Egypt

60.1°F / 15.6°C
Scattered Clouds
Humidity: 51%
Dew Point: 42°F / 6°C
Wind: South at 1 mph / 1.6 km/h
Wind Gust: 6.0 mph / 9.7 km/h
Pressure: 30.12 in / 1020 hPa (Falling)
Visibility: 6.2 miles / 10.0 kilometers
Clouds: Scattered Clouds (SCT) : 2500 ft / 762 m
Yesterday's Maximum: 64.0°F / 17.8°C
Yesterday's Minimum: 49.6°F / 9.8°C
UV: 8 out of 16
Sunrise:6:31 AM EET
Sunset:5:45 PM EET
Moon Rise:4:31 PM EET
Moon Set:5:30 AM EET
Moon Phase Waxing Gibbous
NOAA Weather Radio
No local feed.
METAR HECA 181030Z 34009KT 9999 SCT025 17/04 Q1020 NOSIG
As of: 12:40 PM EET on February 18, 2019
Observed at: Maadi, Helwan, Egypt

View Station's History

No Yes

Local Satellite

Current Satellite Forecast
Region Default Local
No Yes

View Full Screen WunderMap

Forecast

Current Satellite Forecast
Sunday
. High: 64° F. / 17° C.

. High: 60° F. / 16° C.

Features

Weather Apps

WunderRadio

Weather Underground Apps
Check out our wide variety of mobile and setup applications.

Weather Underground Applications

Top of Page

© Copyright 2019
The Weather Company, LLC